Latest Weather Observations for Cooma Airport

IDN60801

Issued at 8:03 am EDT Wednesday 28 February 2024 (issued every 10 minutes, with the page automatically refreshed every 10 minutes)

About weather observations | Map of weather stations | Latest weather observations for NSW | Other Formats
Station Details ID: 070217 Name: COOMA AIRPORT AWS Lat: -36.29 Lon: 148.97 Height: 930.0 m
Data from the previous 72 hours. | See also: Recent months at Cooma Airport
Date/Time
EDT
Temp
°C
App
Temp
°C
Dew
Point
°C
Rel
Hum
%
Delta-T
°C
Wind Press
QNH
hPa
Press
MSL
hPa
Rain since
9am
mm
Dir  Spd
km/h
Gust
km/h
Spd
kts
Gust
kts
28/08:00am 15.2 12.7 15.2 100 0.0 NNE 22 24 12 13 1020.5 1016.6 0.0
28/07:30am 15.0 13.0 15.0 100 0.0 NNE 19 24 10 13 1020.3 1016.4 0.0
28/07:00am 14.7 12.4 14.7 100 0.0 NNE 20 24 11 13 1019.9 1016.0 0.0
28/06:30am 14.5 12.7 14.5 100 0.0 NNE 17 20 9 11 1019.8 1015.9 0.0
28/06:00am 14.5 12.3 14.5 100 0.0 NE 19 20 10 11 1019.6 1015.7 0.0
28/05:30am 14.6 13.2 14.6 100 0.0 NE 15 20 8 11 1019.4 1015.5 0.0
28/05:00am 14.5 12.1 14.5 100 0.0 NNE 20 24 11 13 1019.2 1015.3 0.0
28/04:33am 14.6 12.3 14.6 100 0.0 NNE 20 26 11 14 1019.2 1015.3 0.0
28/04:30am 14.5 12.3 14.5 100 0.0 NNE 19 24 10 13 1019.3 1015.4 0.0
28/04:02am 14.6 12.3 14.6 100 0.0 NNE 20 28 11 15 1019.3 1015.4 0.0
28/04:00am 14.6 12.3 14.6 100 0.0 NNE 20 28 11 15 1019.3 1015.4 0.0
28/03:48am 14.7 13.0 14.7 100 0.0 NNE 17 22 9 12 1019.3 1015.4 0.0
28/03:30am 14.7 12.6 14.7 100 0.0 NNE 19 26 10 14 1019.4 1015.5 0.0
28/03:06am 14.6 12.9 14.6 100 0.0 NNE 17 20 9 11 1019.5 1015.6 0.0
28/03:00am 14.5 12.7 14.5 100 0.0 NNE 17 20 9 11 1019.5 1015.6 0.0
28/02:30am 14.3 12.4 14.3 100 0.0 NE 17 20 9 11 1019.7 1015.8 0.0
28/02:00am 13.9 12.3 13.9 100 0.0 NE 15 17 8 9 1019.9 1016.0 0.0
28/01:55am 13.9 12.3 13.9 100 0.0 NNE 15 17 8 9 1019.9 1016.0 0.0
28/01:30am 13.5 11.8 13.5 100 0.0 NE 15 17 8 9 1019.9 1016.0 0.0
28/01:23am 13.2 11.4 13.2 100 0.0 NE 15 17 8 9 1020.0 1016.2 0.0
28/01:00am 13.4 11.2 13.4 100 0.0 NE 17 20 9 11 1020.3 1016.4 0.0
28/12:30am 12.4 9.9 12.4 100 0.0 NNE 17 19 9 10 1020.3 1016.4 0.0
28/12:00am 12.8 10.4 12.8 100 0.0 NNE 17 20 9 11 1020.2 1016.3 0.0
 
Date/Time
EDT
Temp
°C
App
Temp
°C
Dew
Point
°C
Rel
Hum
%
Delta-T
°C
Wind Press
QNH
hPa
Press
MSL
hPa
Rain since
9am
mm
Dir  Spd
km/h
Gust
km/h
Spd
kts
Gust
kts
27/11:30pm 13.1 11.6 13.1 100 0.0 NNE 13 17 7 9 1020.3 1016.4 0.0
27/11:00pm 13.3 11.1 13.3 100 0.0 NNE 17 19 9 10 1020.3 1016.4 0.0
27/10:30pm 13.6 11.9 13.6 100 0.0 NNE 15 17 8 9 1020.3 1016.4 0.0
27/10:00pm 13.9 12.3 13.9 100 0.0 NNE 15 17 8 9 1020.4 1016.5 0.0
27/09:30pm 13.9 12.2 13.7 99 0.1 NNE 15 19 8 10 1020.3 1016.4 0.0
27/09:00pm 14.5 12.6 14.3 99 0.1 NNE 17 20 9 11 1019.8 1015.9 0.0
27/08:30pm 15.3 13.1 14.5 95 0.5 NE 19 20 10 11 1019.4 1015.5 0.0
27/08:00pm 16.2 14.1 14.6 90 1.0 NE 19 24 10 13 1019.1 1015.2 0.0
27/07:30pm 17.6 15.4 14.5 82 1.9 ENE 19 26 10 14 1019.0 1015.0 0.0
27/07:00pm 19.2 16.8 14.5 74 2.8 ENE 20 30 11 16 1018.5 1014.6 0.0
27/06:30pm 20.7 17.6 14.6 68 3.7 ENE 24 32 13 17 1018.0 1014.0 0.0
27/06:00pm 21.9 18.9 14.8 64 4.4 ENE 24 30 13 16 1017.9 1013.9 0.0
27/05:30pm 23.1 19.8 14.9 60 5.1 ENE 26 32 14 17 1017.5 1013.6 0.0
27/05:00pm 24.4 21.8 14.8 55 6.0 ENE 22 32 12 17 1017.4 1013.5 0.0
27/04:30pm 24.8 22.3 14.0 51 6.6 NE 20 30 11 16 1017.3 1013.4 0.0
27/04:00pm 24.4 21.7 13.6 51 6.6 NNE 20 30 11 16 1017.5 1013.6 0.0
27/03:30pm 24.3 22.0 14.7 55 5.9 NE 20 30 11 16 1017.6 1013.7 0.0
27/03:00pm 23.8 20.0 13.6 52 6.2 NE 26 35 14 19 1017.9 1013.9 0.0
27/02:30pm 23.3 19.9 13.8 55 5.8 NE 24 37 13 20 1018.2 1014.3 0.0
27/02:00pm 23.2 18.6 13.4 54 5.9 NE 30 43 16 23 1018.2 1014.3 0.0
27/01:30pm 22.4 17.7 13.2 56 5.5 NE 30 39 16 21 1018.4 1014.5 0.0
27/01:00pm 22.0 17.8 13.4 58 5.2 NE 28 39 15 21 1018.7 1014.8 0.0
27/12:30pm 21.7 16.6 13.1 58 5.1 NE 32 41 17 22 1019.1 1015.2 0.0
27/12:00pm 21.5 16.3 12.9 58 5.1 NE 32 39 17 21 1019.4 1015.5 0.0
27/11:30am 20.5 15.6 12.7 61 4.6 NE 30 43 16 23 1019.8 1015.9 0.0
27/11:00am 19.8 14.8 12.3 62 4.4 NNE 30 41 16 22 1020.0 1016.2 0.0
27/10:30am 18.5 13.0 12.0 66 3.8 NE 32 41 17 22 1020.2 1016.3 0.0
27/10:00am 17.0 11.9 11.9 72 2.9 NE 30 35 16 19 1020.5 1016.6 0.0
27/09:37am 16.0 10.9 11.8 76 2.4 NNE 30 37 16 20 1020.7 1016.8 0.0
27/09:30am 15.9 10.7 11.7 76 2.4 NNE 30 37 16 20 1020.5 1016.6 0.0
27/09:00am 15.8 11.1 12.0 78 2.2 NE 28 35 15 19 1020.6 1016.7 0.0
27/08:30am 14.1 10.3 11.1 82 1.7 NE 22 30 12 16 1020.6 1016.7 0.0
27/08:21am 13.9 9.7 11.1 83 1.6 NE 24 28 13 15 1020.5 1016.6 0.0
27/08:00am 13.3 9.4 10.7 84 1.4 NE 22 26 12 14 1020.4 1016.5 0.0
27/07:30am 12.8 9.9 11.0 89 1.0 NE 17 22 9 12 1020.3 1016.4 0.0
27/07:00am 12.4 9.4 10.8 90 0.9 NE 17 20 9 11 1020.3 1016.4 0.0
27/06:30am 12.3 8.9 10.7 90 0.9 NE 19 22 10 12 1019.9 1016.0 0.0
27/06:00am 12.1 9.5 10.7 91 0.8 NE 15 19 8 10 1019.7 1015.8 0.0
27/05:30am 12.3 10.0 10.5 89 1.0 NNE 13 17 7 9 1019.7 1015.8 0.0
27/05:00am 12.6 10.4 10.7 88 1.0 NNE 13 17 7 9 1019.9 1016.0 0.0
27/04:30am 12.7 9.7 10.6 87 1.1 NE 17 20 9 11 1019.9 1016.0 0.0
27/04:00am 12.6 9.3 10.8 89 1.0 NE 19 24 10 13 1020.0 1016.2 0.0
27/03:30am 12.5 9.1 10.7 89 1.0 NE 19 22 10 12 1020.4 1016.5 0.0
27/03:28am 12.5 9.1 10.7 89 1.0 NE 19 24 10 13 1020.4 1016.5 0.0
27/03:00am 12.5 9.1 10.7 89 1.0 NNE 19 24 10 13 1020.5 1016.6 0.0
27/02:30am 12.4 8.8 10.6 89 1.0 NE 20 26 11 14 1020.6 1016.7 0.0
27/02:00am 12.1 8.7 11.2 94 0.5 NNE 20 28 11 15 1020.8 1016.9 0.0
27/01:30am 12.1 8.5 10.7 91 0.8 NE 20 26 11 14 1021.1 1017.3 0.0
27/01:00am 12.3 7.4 10.0 86 1.2 NE 26 32 14 17 1021.1 1017.3 0.0
27/12:30am 12.4 7.5 10.0 85 1.3 NE 26 32 14 17 1021.4 1017.5 0.0
27/12:00am 12.5 7.8 10.7 89 1.0 NE 26 32 14 17 1021.6 1017.7 0.0
 
Date/Time
EDT
Temp
°C
App
Temp
°C
Dew
Point
°C
Rel
Hum
%
Delta-T
°C
Wind Press
QNH
hPa
Press
MSL
hPa
Rain since
9am
mm
Dir  Spd
km/h
Gust
km/h
Spd
kts
Gust
kts
26/11:30pm 12.8 8.2 11.2 90 0.9 NE 26 32 14 17 1021.8 1017.9 0.0
26/11:00pm 13.2 9.3 12.1 93 0.6 NE 24 32 13 17 1021.6 1017.7 0.0
26/10:30pm 14.4 11.1 12.8 90 0.9 NE 22 28 12 15 1021.5 1017.6 0.0
26/10:00pm 14.9 12.0 12.9 88 1.2 ENE 20 26 11 14 1021.1 1017.3 0.0
26/09:30pm 15.3 12.8 13.5 89 1.1 ENE 19 24 10 13 1021.5 1017.6 0.0
26/09:00pm 15.5 12.9 13.7 89 1.1 NE 20 26 11 14 1021.1 1017.3 0.0
26/08:30pm 15.6 13.0 13.8 89 1.1 NE 20 26 11 14 1020.7 1016.8 0.0
26/08:00pm 15.8 13.4 14.3 91 0.9 NE 20 26 11 14 1020.5 1016.6 0.0
26/07:30pm 16.3 13.8 14.1 87 1.3 NE 20 28 11 15 1019.8 1015.9 0.0
26/07:00pm 17.1 13.6 14.4 84 1.6 NE 26 32 14 17 1019.3 1015.4 0.0
26/06:44pm 17.7 14.9 14.4 81 2.0 NE 22 30 12 16 1019.1 1015.2 0.0
26/06:30pm 18.5 15.4 14.4 77 2.5 ENE 24 33 13 18 1019.0 1015.0 0.0
26/06:00pm 20.9 17.6 15.0 69 3.6 ENE 26 33 14 18 1018.1 1014.2 0.0
26/05:30pm 23.6 20.5 14.6 57 5.6 ESE 24 37 13 20 1017.5 1013.6 0.0
26/05:00pm 26.1 23.4 9.0 34 9.7 SSE 13 22 7 12 1017.2 1013.3 0.0
26/04:30pm 25.8 22.4 9.2 35 9.5 SSE 17 26 9 14 1017.3 1013.4 0.0
26/04:00pm 25.6 22.5 9.0 35 9.4 SSE 15 26 8 14 1017.3 1013.4 0.0
26/03:30pm 25.9 22.8 8.8 34 9.7 SSE 15 28 8 15 1017.5 1013.6 0.0
26/03:00pm 24.9 21.9 7.5 33 9.6 SSE 13 26 7 14 1017.8 1013.8 0.0
26/02:30pm 25.6 22.2 9.0 35 9.4 S 17 24 9 13 1018.0 1014.0 0.0
26/02:00pm 24.4 21.6 8.4 36 8.9 SSE 13 20 7 11 1018.2 1014.3 0.0
26/01:30pm 24.9 21.9 10.8 41 8.2 S 17 28 9 15 1018.5 1014.6 0.0
26/01:00pm 23.8 21.1 9.0 39 8.3 SSW 13 20 7 11 1018.6 1014.7 0.0
26/12:30pm 22.9 21.1 11.0 47 6.9 SSE 11 20 6 11 1018.7 1014.8 0.0
26/12:00pm 20.9 19.9 12.3 58 5.0 ESE 9 17 5 9 1019.1 1015.2 0.0
26/11:30am 19.7 19.2 12.7 64 4.1 SSE 7 15 4 8 1019.2 1015.3 0.0
26/11:00am 18.8 18.2 13.6 72 3.1 S 9 13 5 7 1019.4 1015.5 0.0
26/10:30am 17.6 17.5 13.3 76 2.5 SSW 6 11 3 6 1019.4 1015.5 0.0
26/10:21am 17.3 17.1 13.6 79 2.2 SW 7 13 4 7 1019.3 1015.4 0.0
26/10:00am 16.6 15.9 13.3 81 1.9 SW 9 15 5 8 1019.3 1015.4 0.0
26/09:44am 16.0 15.1 13.7 86 1.4 SSW 11 17 6 9 1019.3 1015.4 0.0
26/09:30am 15.7 13.9 13.4 86 1.3 SSW 15 17 8 9 1019.2 1015.3 0.0
26/09:00am 15.1 14.2 13.8 92 0.8 SSW 11 15 6 8 1019.0 1015.0 0.0
26/08:30am 14.3 13.2 13.0 92 0.7 SW 11 15 6 8 1018.7 1014.8 0.0
26/08:00am 13.5 11.3 13.2 98 0.2 SW 17 19 9 10 1018.4 1014.5 0.0
26/07:30am 12.9 11.3 12.7 99 0.1 SW 13 15 7 8 1017.9 1013.9 0.0
26/07:00am 12.6 11.6 12.4 99 0.1 SW 9 15 5 8 1017.6 1013.7 0.0
26/06:30am 12.9 11.7 12.7 99 0.1 W 11 13 6 7 1017.2 1013.3 0.0
26/06:00am 12.5 10.8 12.3 99 0.1 SW 13 15 7 8 1017.1 1013.2 0.0
26/05:30am 12.7 10.6 12.4 98 0.2 SSW 15 24 8 13 1016.8 1012.8 0.0
26/05:00am 12.6 13.2 12.0 96 0.3 CALM 0 0 0 0 1016.2 1012.3 0.0
26/04:30am 12.5 13.1 11.9 96 0.3 CALM 0 0 0 0 1016.1 1012.2 0.0
26/04:00am 13.0 12.5 12.1 94 0.5 NNW 6 7 3 4 1016.3 1012.4 0.0
26/03:30am 12.6 12.2 11.2 91 0.8 N 4 9 2 5 1016.3 1012.4 0.0
26/03:00am 13.6 13.0 12.3 92 0.7 N 7 9 4 5 1016.4 1012.5 0.0
26/02:30am 12.4 11.3 12.1 98 0.2 NNE 9 13 5 7 1016.3 1012.4 0.0
26/02:00am 11.7 10.1 11.5 99 0.1 NNE 11 13 6 7 1016.4 1012.5 0.0
26/01:30am 10.8 8.7 9.9 94 0.5 NNE 11 13 6 7 1016.5 1012.6 0.0
26/01:00am 11.5 9.8 11.2 98 0.2 NNE 11 15 6 8 1016.5 1012.6 0.0
26/12:30am 12.3 10.9 10.9 91 0.8 N 9 11 5 6 1016.8 1012.8 0.0
26/12:00am 12.8 11.4 11.0 89 1.0 N 9 11 5 6 1017.0 1013.0 0.0
 
Date/Time
EDT
Temp
°C
App
Temp
°C
Dew
Point
°C
Rel
Hum
%
Delta-T
°C
Wind Press
QNH
hPa
Press
MSL
hPa
Rain since
9am
mm
Dir  Spd
km/h
Gust
km/h
Spd
kts
Gust
kts
25/11:30pm 13.2 12.1 11.8 91 0.8 N 9 11 5 6 1017.2 1013.3 0.0
25/11:00pm 12.9 11.3 11.6 92 0.7 NNE 11 13 6 7 1017.2 1013.3 0.0
25/10:30pm 14.3 12.7 12.9 91 0.8 NNE 13 13 7 7 1017.3 1013.4 0.0
25/10:00pm 15.1 14.0 14.3 95 0.5 NNE 13 15 7 8 1017.4 1013.5 0.0
25/09:30pm 15.1 13.8 13.6 91 0.9 NNE 13 15 7 8 1017.4 1013.5 0.0
25/09:00pm 16.6 15.5 14.2 86 1.4 NE 13 15 7 8 1017.3 1013.4 0.0
25/08:30pm 17.6 16.4 14.1 80 2.1 NNE 13 17 7 9 1017.1 1013.2 0.0
25/08:00pm 19.1 16.7 13.9 72 3.1 NE 19 24 10 13 1016.8 1012.8 0.0
25/07:30pm 20.6 18.6 14.0 66 4.0 NE 17 24 9 13 1016.4 1012.5 0.0
25/07:00pm 22.5 19.6 15.1 63 4.6 ENE 24 30 13 16 1015.9 1011.9 0.0
25/06:30pm 25.1 23.0 13.6 48 7.0 SE 17 24 9 13 1015.6 1011.6 0.0
25/06:00pm 26.9 23.1 5.8 26 11.4 SSW 15 22 8 12 1015.0 1011.0 0.0
25/05:30pm 27.5 23.9 5.1 24 12.0 ESE 13 24 7 13 1015.1 1011.1 0.0
25/05:00pm 27.6 23.8 5.8 25 11.8 SSE 15 28 8 15 1015.1 1011.1 0.0
25/04:30pm 28.2 23.9 5.1 23 12.4 SSE 17 28 9 15 1015.1 1011.1 0.0
25/04:00pm 28.0 23.6 5.0 23 12.4 SSE 17 26 9 14 1015.2 1011.3 0.0
25/03:30pm 28.2 24.8 3.8 21 12.9 SE 11 24 6 13 1015.6 1011.6 0.0
25/03:00pm 27.8 23.8 4.8 23 12.3 SSE 15 28 8 15 1015.8 1011.8 0.0
25/02:30pm 27.6 24.7 8.0 29 11.0 S 13 20 7 11 1016.0 1012.0 0.0
25/02:00pm 27.4 24.4 7.8 29 11.0 S 13 28 7 15 1016.3 1012.4 0.0
25/01:30pm 26.9 24.2 7.4 29 10.8 S 11 20 6 11 1016.5 1012.6 0.0
25/01:00pm 25.4 23.9 9.3 36 9.2 ESE 7 13 4 7 1016.9 1012.9 0.0
25/12:30pm 24.1 22.6 9.3 39 8.4 N 7 11 4 6 1017.3 1013.4 0.0
25/12:00pm 23.7 22.4 10.0 42 7.8 E 7 13 4 7 1017.6 1013.7 0.0
25/11:30am 22.0 20.9 9.9 46 6.9 E 6 11 3 6 1018.1 1014.2 0.0
25/11:00am 20.6 19.0 11.5 56 5.3 ENE 11 15 6 8 1018.5 1014.6 0.0
25/10:30am 18.8 16.8 11.6 63 4.1 NE 13 19 7 10 1018.8 1014.9 0.0
25/10:00am 16.8 14.5 10.6 67 3.5 NE 13 17 7 9 1019.2 1015.3 0.0
25/09:30am 15.3 12.5 11.3 77 2.2 NE 17 20 9 11 1019.4 1015.5 0.0
25/09:00am 13.8 10.6 11.3 85 1.4 NE 19 22 10 12 1019.3 1015.4 0.0
25/08:30am 12.2 9.6 11.9 98 0.2 NE 17 20 9 11 1019.6 1015.7 0.0

Other formats

Comma delimited format used in spreadsheet applications
http://www.bom.gov.au/fwo/IDN60801/IDN60801.94921.axf

JavaScript Object Notation format (JSON) in row-major order
http://www.bom.gov.au/fwo/IDN60801/IDN60801.94921.json

Data quality

Most of these data are generated automatically and are frequently updated. Quality checks on data are not normally performed. It is possible for incorrect values to appear. Refer to information at About Latest Weather Observations and please check the disclaimer before using these data.